createdAt,value
2022-12-13T00:00:19.366Z,19.00
2022-12-13T00:05:20.946Z,19.08
2022-12-13T00:10:22.536Z,18.38
2022-12-13T00:15:24.086Z,18.67
2022-12-13T00:20:25.661Z,17.02
2022-12-13T00:25:27.546Z,18.42
2022-12-13T00:30:31.759Z,16.60
2022-12-13T00:35:34.542Z,18.60
2022-12-13T00:40:36.199Z,17.33
2022-12-13T00:45:38.344Z,16.55
2022-12-13T00:50:40.565Z,17.98
2022-12-13T00:55:42.249Z,16.60
2022-12-13T01:00:43.822Z,17.00
2022-12-13T01:06:14.138Z,19.65
2022-12-13T01:11:08.148Z,15.88
2022-12-13T01:16:11.372Z,16.65
2022-12-13T01:21:16.054Z,15.82
2022-12-13T01:26:20.291Z,16.48
2022-12-13T01:31:22.184Z,16.50
2022-12-13T01:36:27.832Z,15.85
2022-12-13T01:41:32.284Z,15.73
2022-12-13T01:46:35.944Z,15.85
2022-12-13T01:51:52.376Z,14.57
2022-12-13T01:57:00.711Z,14.43
2022-12-13T02:02:03.445Z,17.05
2022-12-13T02:07:05.792Z,15.50
2022-12-13T02:12:07.601Z,14.73
2022-12-13T02:17:24.503Z,15.25
2022-12-13T02:23:03.922Z,16.17
2022-12-13T02:28:48.904Z,15.48
2022-12-13T02:33:58.444Z,15.52
2022-12-13T02:39:09.436Z,15.93
2022-12-13T02:44:22.945Z,17.33
2022-12-13T02:49:31.070Z,17.90
2022-12-13T02:54:33.281Z,15.98
2022-12-13T02:59:39.332Z,17.20
2022-12-13T03:05:28.390Z,19.15
2022-12-13T03:15:47.645Z,17.88
2022-12-13T03:20:53.003Z,19.55
2022-12-13T03:25:59.467Z,20.05
2022-12-13T03:31:01.119Z,19.42
2022-12-13T03:36:03.497Z,16.13
2022-12-13T03:41:14.054Z,19.15
2022-12-13T03:46:16.102Z,17.02
2022-12-13T03:51:17.681Z,20.00
2022-12-13T03:56:19.254Z,19.65
2022-12-13T04:01:22.119Z,19.20
2022-12-13T04:06:26.380Z,19.67
2022-12-13T04:11:49.885Z,18.38
2022-12-13T04:16:52.349Z,21.05
2022-12-13T04:21:54.976Z,19.63
2022-12-13T04:26:56.525Z,20.48
2022-12-13T04:32:04.742Z,22.33
2022-12-13T04:37:06.497Z,21.23
2022-12-13T04:42:08.048Z,21.33
2022-12-13T04:47:09.594Z,22.25
2022-12-13T04:52:11.298Z,22.38
2022-12-13T04:57:13.269Z,21.92
2022-12-13T05:02:14.935Z,22.10
2022-12-13T05:07:26.663Z,22.02
2022-12-13T05:12:28.236Z,22.65
2022-12-13T05:17:29.884Z,22.83
2022-12-13T05:22:31.447Z,23.00
2022-12-13T05:27:33.120Z,21.92
2022-12-13T05:32:43.465Z,23.65
2022-12-13T05:37:46.701Z,21.90
2022-12-13T05:43:01.331Z,23.88
2022-12-13T05:48:03.808Z,24.13
2022-12-13T05:53:06.932Z,23.38
2022-12-13T05:58:13.188Z,20.27
2022-12-13T06:03:15.290Z,22.52
2022-12-13T06:08:24.015Z,20.60
2022-12-13T06:13:31.912Z,23.00
2022-12-13T06:18:35.843Z,20.63
2022-12-13T06:23:37.541Z,21.95
2022-12-13T06:28:39.078Z,17.90
2022-12-13T06:33:40.670Z,22.92
2022-12-13T06:38:43.291Z,24.30
2022-12-13T06:43:48.368Z,23.65
2022-12-13T06:48:52.109Z,23.05
2022-12-13T06:53:53.734Z,24.15
2022-12-13T06:59:01.656Z,22.98
2022-12-13T07:04:03.706Z,21.70
2022-12-13T07:09:05.512Z,22.38
2022-12-13T07:14:07.742Z,21.10
2022-12-13T07:19:22.822Z,24.77
2022-12-13T07:24:29.396Z,21.33
2022-12-13T07:29:32.176Z,24.77
2022-12-13T07:34:43.612Z,22.15
2022-12-13T07:39:46.612Z,21.90
2022-12-13T07:44:51.355Z,24.08
2022-12-13T07:49:54.888Z,22.58
2022-12-13T07:55:05.873Z,23.98
2022-12-13T08:00:08.333Z,23.95
2022-12-13T08:05:26.883Z,25.00
2022-12-13T08:10:31.719Z,22.30
2022-12-13T08:15:33.777Z,20.80
2022-12-13T08:20:35.484Z,21.45
2022-12-13T08:25:38.314Z,23.35
2022-12-13T08:30:39.950Z,23.55
2022-12-13T08:35:43.575Z,22.17
2022-12-13T08:40:46.193Z,20.65
2022-12-13T08:45:50.615Z,23.20
2022-12-13T08:50:52.290Z,21.13
2022-12-13T08:55:54.974Z,21.63
2022-12-13T09:00:56.690Z,21.83
2022-12-13T09:05:58.294Z,21.45
2022-12-13T09:11:11.479Z,21.05
2022-12-13T09:16:24.814Z,18.83
2022-12-13T09:21:31.874Z,20.88
2022-12-13T09:26:38.230Z,19.70
2022-12-13T09:31:41.241Z,20.52
2022-12-13T09:36:43.060Z,19.67
2022-12-13T09:41:49.484Z,20.52
2022-12-13T09:46:53.661Z,18.50
2022-12-13T09:52:11.041Z,19.83
2022-12-13T09:57:34.122Z,16.15
2022-12-13T10:02:43.708Z,18.50
2022-12-13T10:07:46.207Z,16.83
2022-12-13T10:12:58.273Z,14.93
2022-12-13T10:18:29.461Z,17.85
2022-12-13T10:23:42.573Z,15.70
2022-12-13T10:29:11.576Z,16.20
2022-12-13T10:34:22.093Z,15.48
2022-12-13T10:39:43.028Z,15.00
2022-12-13T10:44:45.837Z,14.18
2022-12-13T10:49:59.076Z,14.38
2022-12-13T10:55:23.343Z,13.10
2022-12-13T11:00:34.928Z,15.65
2022-12-13T11:05:38.513Z,15.20
2022-12-13T11:10:40.679Z,16.40
2022-12-13T11:15:42.736Z,16.67
2022-12-13T11:20:56.705Z,16.30
2022-12-13T11:26:11.445Z,15.52
2022-12-13T11:36:53.859Z,15.88
2022-12-13T11:42:08.802Z,14.73
2022-12-13T11:47:21.755Z,16.73
2022-12-13T11:52:27.027Z,18.20
2022-12-13T11:58:00.077Z,16.70
2022-12-13T12:03:21.789Z,16.92
2022-12-13T12:08:38.860Z,16.70
2022-12-13T12:13:50.852Z,16.33
2022-12-13T12:18:53.607Z,16.38
2022-12-13T12:24:07.380Z,16.45
2022-12-13T12:29:20.484Z,15.07
2022-12-13T12:34:45.874Z,15.63
2022-12-13T12:40:35.706Z,16.27
2022-12-13T12:46:06.251Z,17.10
2022-12-13T12:51:29.382Z,16.65
2022-12-13T12:56:38.173Z,15.15
2022-12-13T13:02:10.811Z,15.02
2022-12-13T13:07:23.199Z,16.05
2022-12-13T13:12:30.139Z,15.32
2022-12-13T13:17:32.124Z,15.32
2022-12-13T13:22:43.527Z,14.10
2022-12-13T13:27:49.155Z,15.32
2022-12-13T13:32:56.616Z,14.68
2022-12-13T13:38:01.021Z,13.93
2022-12-13T13:43:05.396Z,14.90
2022-12-13T13:48:15.312Z,13.70
2022-12-13T13:53:34.494Z,13.23
2022-12-13T13:58:51.329Z,12.90
2022-12-13T14:04:37.933Z,12.75
2022-12-13T14:10:12.282Z,12.10
2022-12-13T14:15:49.916Z,13.00
2022-12-13T14:21:05.840Z,12.80
2022-12-13T14:26:32.382Z,12.48
2022-12-13T14:31:41.039Z,12.32
2022-12-13T14:36:48.011Z,12.83
2022-12-13T14:41:56.569Z,13.02
2022-12-13T14:47:11.966Z,11.93
2022-12-13T14:52:25.909Z,11.95
2022-12-13T14:57:31.933Z,12.75
2022-12-13T15:02:33.842Z,12.73
2022-12-13T15:07:41.384Z,14.55
2022-12-13T15:12:44.788Z,15.88
2022-12-13T15:17:46.363Z,16.38
2022-12-13T15:23:01.873Z,16.13
2022-12-13T15:28:13.577Z,15.80
2022-12-13T15:33:29.045Z,17.55
2022-12-13T15:38:45.291Z,17.40
2022-12-13T15:43:51.370Z,18.30
2022-12-13T15:48:55.272Z,14.88
2022-12-13T15:54:09.059Z,16.55
2022-12-13T15:59:32.090Z,16.67
2022-12-13T16:04:33.699Z,17.58
2022-12-13T16:09:38.168Z,17.90
2022-12-13T16:14:49.225Z,18.40
2022-12-13T16:19:53.255Z,16.83
2022-12-13T16:24:56.514Z,18.73
2022-12-13T16:29:58.489Z,16.20
2022-12-13T16:35:00.066Z,17.02
2022-12-13T16:40:30.223Z,16.65
2022-12-13T16:45:42.585Z,18.58
2022-12-13T16:50:50.081Z,14.85
2022-12-13T16:55:59.691Z,16.83
2022-12-13T17:01:02.649Z,14.85
2022-12-13T17:06:04.663Z,16.65
2022-12-13T17:11:07.027Z,16.13
2022-12-13T17:16:08.695Z,15.55
2022-12-13T17:21:10.620Z,16.17
2022-12-13T17:26:12.266Z,15.13
2022-12-13T17:31:14.027Z,15.02
2022-12-13T17:36:16.552Z,15.70
2022-12-13T17:41:18.341Z,15.30
2022-12-13T17:46:20.074Z,14.93
2022-12-13T17:51:21.846Z,15.52
2022-12-13T17:56:23.467Z,15.25
2022-12-13T18:01:26.618Z,16.73
2022-12-13T18:06:28.296Z,16.15
2022-12-13T18:11:33.995Z,14.60
2022-12-13T18:16:38.521Z,15.13
2022-12-13T18:21:45.974Z,15.68
2022-12-13T18:26:47.506Z,15.38
2022-12-13T18:31:49.064Z,14.13
2022-12-13T18:36:50.667Z,14.75
2022-12-13T18:41:53.428Z,16.00
2022-12-13T18:46:55.047Z,14.15
2022-12-13T18:51:56.889Z,13.57
2022-12-13T18:56:58.462Z,14.00
2022-12-13T19:02:00.836Z,13.55
2022-12-13T19:07:02.521Z,14.70
2022-12-13T19:12:04.444Z,12.25
2022-12-13T19:17:06.024Z,13.63
2022-12-13T19:22:07.810Z,15.05
2022-12-13T19:27:09.339Z,13.57
2022-12-13T19:32:10.871Z,12.43
2022-12-13T19:37:12.644Z,12.70
2022-12-13T19:42:15.402Z,12.57
2022-12-13T19:47:16.980Z,12.55
2022-12-13T19:52:18.509Z,12.07
2022-12-13T19:57:20.035Z,11.75
2022-12-13T20:02:21.566Z,13.55
2022-12-13T20:07:24.722Z,12.43
2022-12-13T20:12:26.282Z,11.70
2022-12-13T20:17:27.926Z,12.00
2022-12-13T20:22:29.513Z,12.82
2022-12-13T20:27:31.075Z,12.95
2022-12-13T20:32:34.053Z,10.27
2022-12-13T20:37:35.616Z,10.55
2022-12-13T20:42:37.169Z,12.15
2022-12-13T20:47:38.699Z,12.40
2022-12-13T20:52:40.215Z,13.48
2022-12-13T20:57:41.755Z,13.25
2022-12-13T21:02:44.557Z,13.60
2022-12-13T21:08:04.693Z,13.07
2022-12-13T21:13:06.225Z,12.02
2022-12-13T21:18:07.750Z,13.18
2022-12-13T21:23:09.261Z,12.45
2022-12-13T21:28:12.892Z,11.88
2022-12-13T21:33:14.423Z,11.68
2022-12-13T21:38:15.981Z,13.45
2022-12-13T21:43:17.539Z,11.65
2022-12-13T21:48:19.570Z,11.93
2022-12-13T21:53:21.091Z,11.40
2022-12-13T21:58:41.357Z,12.73
2022-12-13T22:03:42.882Z,11.82
2022-12-13T22:08:44.475Z,12.50
2022-12-13T22:13:48.419Z,13.10
2022-12-13T22:18:54.113Z,12.02
2022-12-13T22:23:55.870Z,12.18
2022-12-13T22:28:58.509Z,11.85
2022-12-13T22:34:00.101Z,12.25
2022-12-13T22:39:01.676Z,11.75
2022-12-13T22:44:03.349Z,11.82
2022-12-13T22:49:05.087Z,10.68
2022-12-13T22:54:06.961Z,10.93
2022-12-13T22:59:08.498Z,10.82
2022-12-13T23:04:11.621Z,11.38
2022-12-13T23:09:15.497Z,10.07
2022-12-13T23:14:20.183Z,10.02
2022-12-13T23:24:43.456Z,10.55
2022-12-13T23:29:45.007Z,13.90
2022-12-13T23:34:46.553Z,15.40
2022-12-13T23:39:48.197Z,16.95
2022-12-13T23:44:49.711Z,26.60
2022-12-13T23:49:51.236Z,20.60
2022-12-13T23:54:52.774Z,23.27
2022-12-13T23:59:54.307Z,23.05
